sensor_id;sensor_type;location;lat;lon;timestamp;pressure;altitude;pressure_sealevel;temperature;humidity
43326;BME280;28920;59.862;30.636;2022-09-13T21:05:13;100610.56;;;10.91;100.00
43326;BME280;28920;59.862;30.636;2022-09-13T21:07:41;100604.34;;;10.90;100.00
43326;BME280;28920;59.862;30.636;2022-09-13T21:10:38;100603.88;;;10.96;100.00
43326;BME280;28920;59.862;30.636;2022-09-13T21:13:07;100591.88;;;11.02;100.00
43326;BME280;28920;59.862;30.636;2022-09-13T21:15:35;100594.28;;;11.05;100.00
43326;BME280;28920;59.862;30.636;2022-09-13T21:18:04;100583.50;;;11.07;100.00
43326;BME280;28920;59.862;30.636;2022-09-13T21:20:33;100590.88;;;11.14;100.00
43326;BME280;28920;59.862;30.636;2022-09-13T21:23:01;100588.00;;;11.18;100.00
43326;BME280;28920;59.862;30.636;2022-09-13T21:25:29;100578.50;;;11.25;100.00
43326;BME280;28920;59.862;30.636;2022-09-13T21:27:57;100564.31;;;11.24;100.00
43326;BME280;28920;59.862;30.636;2022-09-13T21:30:25;100573.66;;;11.30;100.00
43326;BME280;28920;59.862;30.636;2022-09-13T21:32:53;100566.47;;;11.31;100.00
43326;BME280;28920;59.862;30.636;2022-09-13T21:35:21;100566.47;;;11.31;100.00
43326;BME280;28920;59.862;30.636;2022-09-13T21:37:50;100559.94;;;11.35;100.00
43326;BME280;28920;59.862;30.636;2022-09-13T21:40:19;100566.72;;;11.39;100.00
43326;BME280;28920;59.862;30.636;2022-09-13T21:42:47;100553.59;;;11.36;100.00
43326;BME280;28920;59.862;30.636;2022-09-13T21:45:15;100556.03;;;11.39;100.00
43326;BME280;28920;59.862;30.636;2022-09-13T21:47:43;100557.72;;;11.40;100.00
43326;BME280;28920;59.862;30.636;2022-09-13T21:50:11;100558.44;;;11.42;100.00
43326;BME280;28920;59.862;30.636;2022-09-13T21:52:39;100551.28;;;11.43;100.00
43326;BME280;28920;59.862;30.636;2022-09-13T21:55:08;100558.19;;;11.45;100.00
43326;BME280;28920;59.862;30.636;2022-09-13T21:57:36;100550.69;;;11.39;100.00
43326;BME280;28920;59.862;30.636;2022-09-13T22:00:05;100553.09;;;11.42;100.00
43326;BME280;28920;59.862;30.636;2022-09-13T22:02:40;100548.50;;;11.44;100.00
43326;BME280;28920;59.862;30.636;2022-09-13T22:05:09;100545.22;;;11.40;100.00
43326;BME280;28920;59.862;30.636;2022-09-13T22:07:36;100532.47;;;11.44;100.00
43326;BME280;28920;59.862;30.636;2022-09-13T22:10:05;100532.47;;;11.44;100.00
43326;BME280;28920;59.862;30.636;2022-09-13T22:12:34;100533.56;;;11.41;100.00
43326;BME280;28920;59.862;30.636;2022-09-13T22:15:03;100534.28;;;11.44;100.00
43326;BME280;28920;59.862;30.636;2022-09-13T22:17:31;100529.03;;;11.42;100.00
43326;BME280;28920;59.862;30.636;2022-09-13T22:19:59;100519.81;;;11.46;100.00
43326;BME280;28920;59.862;30.636;2022-09-13T22:22:29;100518.13;;;11.45;100.00
43326;BME280;28920;59.862;30.636;2022-09-13T22:24:56;100523.47;;;11.45;100.00
43326;BME280;28920;59.862;30.636;2022-09-13T22:27:24;100521.03;;;11.42;100.00
43326;BME280;28920;59.862;30.636;2022-09-13T22:29:54;100516.94;;;11.38;100.00
43326;BME280;28920;59.862;30.636;2022-09-13T22:32:21;100511.84;;;11.35;100.00
43326;BME280;28920;59.862;30.636;2022-09-13T22:34:50;100506.84;;;11.41;100.00
43326;BME280;28920;59.862;30.636;2022-09-13T22:37:17;100506.34;;;11.48;100.00
43326;BME280;28920;59.862;30.636;2022-09-13T22:39:45;100510.84;;;11.47;100.00
43326;BME280;28920;59.862;30.636;2022-09-13T22:42:13;100506.47;;;11.46;100.00
43326;BME280;28920;59.862;30.636;2022-09-13T22:44:41;100507.94;;;11.39;100.00
43326;BME280;28920;59.862;30.636;2022-09-13T22:47:10;100510.50;;;11.40;100.00
43326;BME280;28920;59.862;30.636;2022-09-13T22:49:38;100501.75;;;11.38;100.00
43326;BME280;28920;59.862;30.636;2022-09-13T22:52:06;100509.91;;;11.37;100.00
43326;BME280;28920;59.862;30.636;2022-09-13T22:54:34;100502.84;;;11.36;100.00
43326;BME280;28920;59.862;30.636;2022-09-13T22:57:02;100499.31;;;11.35;100.00
43326;BME280;28920;59.862;30.636;2022-09-13T22:59:30;100502.25;;;11.32;100.00
43326;BME280;28920;59.862;30.636;2022-09-13T23:01:58;100490.84;;;11.30;100.00
43326;BME280;28920;59.862;30.636;2022-09-13T23:04:27;100489.03;;;11.31;100.00
43326;BME280;28920;59.862;30.636;2022-09-13T23:06:55;100492.66;;;11.30;100.00
43326;BME280;28920;59.862;30.636;2022-09-13T23:09:23;100489.03;;;11.31;100.00
43326;BME280;28920;59.862;30.636;2022-09-13T23:11:51;100475.81;;;11.29;100.00
43326;BME280;28920;59.862;30.636;2022-09-13T23:14:18;100477.50;;;11.30;100.00
43326;BME280;28920;59.862;30.636;2022-09-13T23:16:47;100480.28;;;11.28;100.00
43326;BME280;28920;59.862;30.636;2022-09-13T23:19:18;100482.25;;;11.26;100.00
43326;BME280;28920;59.862;30.636;2022-09-13T23:21:48;100475.94;;;11.27;100.00
43326;BME280;28920;59.862;30.636;2022-09-13T23:24:18;100465.97;;;11.30;100.00
43326;BME280;28920;59.862;30.636;2022-09-13T23:26:47;100456.63;;;11.24;100.00
43326;BME280;28920;59.862;30.636;2022-09-13T23:29:16;100452.66;;;11.18;100.00
43326;BME280;28920;59.862;30.636;2022-09-13T23:31:45;100455.31;;;11.18;100.00
43326;BME280;28920;59.862;30.636;2022-09-13T23:34:14;100450.19;;;11.26;100.00
43326;BME280;28920;59.862;30.636;2022-09-13T23:36:43;100446.47;;;11.18;100.00
43326;BME280;28920;59.862;30.636;2022-09-13T23:39:16;100445.62;;;11.17;100.00
43326;BME280;28920;59.862;30.636;2022-09-13T23:41:47;100443.44;;;11.22;100.00
43326;BME280;28920;59.862;30.636;2022-09-13T23:44:16;100443.66;;;11.19;100.00
43326;BME280;28920;59.862;30.636;2022-09-13T23:46:44;100444.63;;;11.18;100.00
43326;BME280;28920;59.862;30.636;2022-09-13T23:49:12;100438.25;;;11.09;100.00
43326;BME280;28920;59.862;30.636;2022-09-13T23:51:40;100444.19;;;11.02;100.00
43326;BME280;28920;59.862;30.636;2022-09-13T23:54:08;100441.78;;;10.98;100.00
43326;BME280;28920;59.862;30.636;2022-09-13T23:56:37;100442.03;;;10.95;100.00
43326;BME280;28920;59.862;30.636;2022-09-13T23:59:06;100435.22;;;10.91;100.00
